sensor_id;sensor_type;location;lat;lon;timestamp;pressure;altitude;pressure_sealevel;temperature;humidity
12468;BME280;57850;52.922;6.256;2023-07-13T00:00:39;101329.00;;;19.76;100.00
12468;BME280;57850;52.922;6.256;2023-07-13T00:03:06;101321.25;;;19.47;100.00
12468;BME280;57850;52.922;6.256;2023-07-13T00:05:32;101291.19;;;19.48;100.00
12468;BME280;57850;52.922;6.256;2023-07-13T00:08:00;101281.03;;;19.42;100.00
12468;BME280;57850;52.922;6.256;2023-07-13T00:10:27;101270.81;;;19.75;100.00
12468;BME280;57850;52.922;6.256;2023-07-13T00:12:54;101275.25;;;19.74;100.00
12468;BME280;57850;52.922;6.256;2023-07-13T00:15:24;101275.69;;;19.68;100.00
12468;BME280;57850;52.922;6.256;2023-07-13T00:17:52;101277.84;;;19.89;100.00
12468;BME280;57850;52.922;6.256;2023-07-13T00:20:20;101287.66;;;19.87;100.00
12468;BME280;57850;52.922;6.256;2023-07-13T00:22:47;101280.91;;;19.83;100.00
12468;BME280;57850;52.922;6.256;2023-07-13T00:25:15;101276.44;;;19.96;100.00
12468;BME280;57850;52.922;6.256;2023-07-13T00:27:42;101285.91;;;20.25;100.00
12468;BME280;57850;52.922;6.256;2023-07-13T00:30:10;101290.94;;;20.42;100.00
12468;BME280;57850;52.922;6.256;2023-07-13T00:32:39;101291.03;;;20.41;100.00
12468;BME280;57850;52.922;6.256;2023-07-13T00:35:07;101301.69;;;20.52;100.00
12468;BME280;57850;52.922;6.256;2023-07-13T00:37:33;101306.38;;;20.23;100.00
12468;BME280;57850;52.922;6.256;2023-07-13T00:40:01;101295.25;;;20.30;100.00
12468;BME280;57850;52.922;6.256;2023-07-13T00:42:28;101272.75;;;20.49;100.00
12468;BME280;57850;52.922;6.256;2023-07-13T00:45:04;101273.50;;;20.51;100.00
12468;BME280;57850;52.922;6.256;2023-07-13T00:47:31;101292.59;;;20.43;100.00
12468;BME280;57850;52.922;6.256;2023-07-13T00:49:59;101260.47;;;20.48;100.00
12468;BME280;57850;52.922;6.256;2023-07-13T00:52:27;101255.25;;;20.21;100.00
12468;BME280;57850;52.922;6.256;2023-07-13T00:54:55;101255.59;;;20.16;100.00
12468;BME280;57850;52.922;6.256;2023-07-13T00:57:23;101225.19;;;20.35;100.00
12468;BME280;57850;52.922;6.256;2023-07-13T00:59:52;101228.63;;;20.60;100.00
12468;BME280;57850;52.922;6.256;2023-07-13T01:02:21;101243.72;;;20.47;100.00
12468;BME280;57850;52.922;6.256;2023-07-13T01:04:48;101233.00;;;20.36;100.00
12468;BME280;57850;52.922;6.256;2023-07-13T01:07:16;101215.00;;;20.77;100.00
12468;BME280;57850;52.922;6.256;2023-07-13T01:09:44;101237.88;;;20.55;100.00
12468;BME280;57850;52.922;6.256;2023-07-13T01:12:11;101251.66;;;20.60;100.00
12468;BME280;57850;52.922;6.256;2023-07-13T01:14:39;101240.13;;;20.84;100.00
12468;BME280;57850;52.922;6.256;2023-07-13T01:17:08;101242.00;;;20.59;100.00
12468;BME280;57850;52.922;6.256;2023-07-13T01:19:38;101238.06;;;20.52;100.00
12468;BME280;57850;52.922;6.256;2023-07-13T01:22:09;101226.56;;;20.27;100.00
12468;BME280;57850;52.922;6.256;2023-07-13T01:24:37;101216.75;;;20.53;100.00
12468;BME280;57850;52.922;6.256;2023-07-13T01:27:06;101229.09;;;20.16;100.00
12468;BME280;57850;52.922;6.256;2023-07-13T01:29:35;101205.13;;;20.30;100.00
12468;BME280;57850;52.922;6.256;2023-07-13T01:32:08;101232.59;;;20.42;100.00
12468;BME280;57850;52.922;6.256;2023-07-13T01:34:35;101235.41;;;20.52;100.00
12468;BME280;57850;52.922;6.256;2023-07-13T01:37:02;101230.69;;;20.19;100.00
12468;BME280;57850;52.922;6.256;2023-07-13T01:39:31;101219.56;;;20.01;100.00
12468;BME280;57850;52.922;6.256;2023-07-13T01:41:58;101215.72;;;20.05;100.00
12468;BME280;57850;52.922;6.256;2023-07-13T01:44:25;101215.44;;;20.10;100.00
12468;BME280;57850;52.922;6.256;2023-07-13T01:46:53;101209.69;;;20.16;100.00
12468;BME280;57850;52.922;6.256;2023-07-13T01:49:19;101235.34;;;20.03;100.00
12468;BME280;57850;52.922;6.256;2023-07-13T01:51:46;101233.84;;;19.99;100.00
12468;BME280;57850;52.922;6.256;2023-07-13T01:54:13;101237.56;;;20.09;100.00
12468;BME280;57850;52.922;6.256;2023-07-13T01:56:41;101231.63;;;19.93;100.00
12468;BME280;57850;52.922;6.256;2023-07-13T01:59:08;101260.91;;;20.16;100.00
12468;BME280;57850;52.922;6.256;2023-07-13T02:01:35;101255.25;;;19.96;100.00
12468;BME280;57850;52.922;6.256;2023-07-13T02:04:02;101268.63;;;19.94;100.00
12468;BME280;57850;52.922;6.256;2023-07-13T02:06:29;101265.84;;;19.83;100.00
12468;BME280;57850;52.922;6.256;2023-07-13T02:08:55;101243.81;;;19.83;100.00
12468;BME280;57850;52.922;6.256;2023-07-13T02:11:22;101253.38;;;19.85;100.00
12468;BME280;57850;52.922;6.256;2023-07-13T02:13:51;101242.66;;;19.87;100.00
12468;BME280;57850;52.922;6.256;2023-07-13T02:16:18;101260.44;;;19.85;100.00
12468;BME280;57850;52.922;6.256;2023-07-13T02:18:45;101269.78;;;19.90;100.00
12468;BME280;57850;52.922;6.256;2023-07-13T02:21:11;101243.28;;;19.90;100.00
12468;BME280;57850;52.922;6.256;2023-07-13T02:23:38;101229.59;;;19.71;100.00
12468;BME280;57850;52.922;6.256;2023-07-13T02:26:05;101226.31;;;19.80;100.00
12468;BME280;57850;52.922;6.256;2023-07-13T02:28:32;101239.97;;;19.61;100.00
12468;BME280;57850;52.922;6.256;2023-07-13T02:31:06;101215.50;;;19.70;100.00
12468;BME280;57850;52.922;6.256;2023-07-13T02:33:33;101225.22;;;19.45;100.00
12468;BME280;57850;52.922;6.256;2023-07-13T02:36:00;101222.94;;;19.65;100.00
12468;BME280;57850;52.922;6.256;2023-07-13T02:38:26;101218.50;;;19.78;100.00
12468;BME280;57850;52.922;6.256;2023-07-13T02:40:53;101209.59;;;19.67;100.00
12468;BME280;57850;52.922;6.256;2023-07-13T02:43:21;101216.44;;;19.44;100.00
12468;BME280;57850;52.922;6.256;2023-07-13T02:45:48;101212.09;;;19.56;100.00
12468;BME280;57850;52.922;6.256;2023-07-13T02:48:16;101198.13;;;19.41;100.00
12468;BME280;57850;52.922;6.256;2023-07-13T02:50:44;101156.66;;;19.27;100.00
12468;BME280;57850;52.922;6.256;2023-07-13T02:53:11;101149.47;;;19.17;100.00
12468;BME280;57850;52.922;6.256;2023-07-13T02:55:38;101117.38;;;19.21;100.00
12468;BME280;57850;52.922;6.256;2023-07-13T02:58:06;101130.41;;;19.24;100.00
12468;BME280;57850;52.922;6.256;2023-07-13T03:00:33;101132.34;;;19.35;100.00
12468;BME280;57850;52.922;6.256;2023-07-13T03:03:00;101151.06;;;19.19;100.00
12468;BME280;57850;52.922;6.256;2023-07-13T03:05:28;101146.94;;;19.28;100.00
12468;BME280;57850;52.922;6.256;2023-07-13T03:07:55;101119.09;;;19.35;100.00
12468;BME280;57850;52.922;6.256;2023-07-13T03:10:22;101125.31;;;19.09;100.00
12468;BME280;57850;52.922;6.256;2023-07-13T03:12:49;101143.13;;;19.19;100.00
12468;BME280;57850;52.922;6.256;2023-07-13T03:15:16;101105.88;;;18.83;100.00
12468;BME280;57850;52.922;6.256;2023-07-13T03:17:42;101077.03;;;18.93;100.00
12468;BME280;57850;52.922;6.256;2023-07-13T03:20:10;101057.16;;;19.00;100.00
12468;BME280;57850;52.922;6.256;2023-07-13T03:22:38;101049.09;;;18.89;100.00
12468;BME280;57850;52.922;6.256;2023-07-13T03:25:05;101064.97;;;19.14;100.00
12468;BME280;57850;52.922;6.256;2023-07-13T03:27:32;101060.84;;;18.97;100.00
12468;BME280;57850;52.922;6.256;2023-07-13T03:29:59;101074.09;;;18.70;100.00
12468;BME280;57850;52.922;6.256;2023-07-13T03:32:26;101060.44;;;19.16;100.00
12468;BME280;57850;52.922;6.256;2023-07-13T03:34:53;101041.38;;;18.86;100.00
12468;BME280;57850;52.922;6.256;2023-07-13T03:37:19;101047.75;;;19.21;100.00
12468;BME280;57850;52.922;6.256;2023-07-13T03:39:47;101057.44;;;18.95;100.00
12468;BME280;57850;52.922;6.256;2023-07-13T03:42:14;101054.91;;;18.94;100.00
12468;BME280;57850;52.922;6.256;2023-07-13T03:44:42;101049.41;;;18.84;100.00
12468;BME280;57850;52.922;6.256;2023-07-13T03:47:11;101051.03;;;19.37;100.00
12468;BME280;57850;52.922;6.256;2023-07-13T03:49:38;101098.53;;;19.01;100.00
12468;BME280;57850;52.922;6.256;2023-07-13T03:52:06;101068.59;;;19.25;100.00
12468;BME280;57850;52.922;6.256;2023-07-13T03:54:32;101095.41;;;19.46;100.00
12468;BME280;57850;52.922;6.256;2023-07-13T03:57:01;101095.16;;;19.37;100.00
12468;BME280;57850;52.922;6.256;2023-07-13T03:59:27;101102.41;;;19.47;100.00
12468;BME280;57850;52.922;6.256;2023-07-13T04:01:54;101127.28;;;19.95;100.00
12468;BME280;57850;52.922;6.256;2023-07-13T04:04:21;101151.94;;;19.83;100.00
12468;BME280;57850;52.922;6.256;2023-07-13T04:06:47;101140.41;;;19.84;100.00
12468;BME280;57850;52.922;6.256;2023-07-13T04:09:14;101128.50;;;19.26;100.00
12468;BME280;57850;52.922;6.256;2023-07-13T04:11:41;101074.75;;;19.39;100.00
12468;BME280;57850;52.922;6.256;2023-07-13T04:14:09;101078.38;;;19.50;100.00
12468;BME280;57850;52.922;6.256;2023-07-13T04:16:36;101052.81;;;19.11;100.00
12468;BME280;57850;52.922;6.256;2023-07-13T04:19:03;101040.78;;;19.45;100.00
12468;BME280;57850;52.922;6.256;2023-07-13T04:21:30;101039.94;;;19.19;100.00
12468;BME280;57850;52.922;6.256;2023-07-13T04:23:58;101044.50;;;19.43;100.00
12468;BME280;57850;52.922;6.256;2023-07-13T04:26:25;101021.91;;;19.37;100.00
12468;BME280;57850;52.922;6.256;2023-07-13T04:28:52;101062.78;;;19.71;100.00
12468;BME280;57850;52.922;6.256;2023-07-13T04:31:20;101080.91;;;19.64;100.00
12468;BME280;57850;52.922;6.256;2023-07-13T04:33:47;101099.97;;;19.44;100.00
12468;BME280;57850;52.922;6.256;2023-07-13T04:36:15;101101.66;;;19.33;100.00
12468;BME280;57850;52.922;6.256;2023-07-13T04:38:42;101077.91;;;19.18;100.00
12468;BME280;57850;52.922;6.256;2023-07-13T04:41:09;101108.13;;;19.66;100.00
12468;BME280;57850;52.922;6.256;2023-07-13T04:43:35;101124.06;;;19.27;100.00
12468;BME280;57850;52.922;6.256;2023-07-13T04:46:06;101100.06;;;19.43;100.00
12468;BME280;57850;52.922;6.256;2023-07-13T04:48:35;101125.19;;;19.62;100.00
12468;BME280;57850;52.922;6.256;2023-07-13T04:51:03;101115.44;;;19.50;100.00
12468;BME280;57850;52.922;6.256;2023-07-13T04:53:31;101137.34;;;19.52;100.00
12468;BME280;57850;52.922;6.256;2023-07-13T04:55:59;101125.03;;;19.26;100.00
12468;BME280;57850;52.922;6.256;2023-07-13T04:58:27;101099.84;;;19.58;100.00
12468;BME280;57850;52.922;6.256;2023-07-13T05:00:59;101124.09;;;19.65;100.00
12468;BME280;57850;52.922;6.256;2023-07-13T05:03:26;101125.25;;;19.86;100.00
12468;BME280;57850;52.922;6.256;2023-07-13T05:05:59;101127.81;;;19.75;100.00
12468;BME280;57850;52.922;6.256;2023-07-13T05:08:26;101190.72;;;19.97;100.00
12468;BME280;57850;52.922;6.256;2023-07-13T05:10:53;101230.78;;;20.17;100.00
12468;BME280;57850;52.922;6.256;2023-07-13T05:13:20;101221.88;;;20.18;100.00
12468;BME280;57850;52.922;6.256;2023-07-13T05:15:48;101221.88;;;19.93;100.00
12468;BME280;57850;52.922;6.256;2023-07-13T05:18:21;101206.31;;;20.14;100.00
12468;BME280;57850;52.922;6.256;2023-07-13T05:20:57;101219.16;;;19.95;100.00
12468;BME280;57850;52.922;6.256;2023-07-13T05:23:25;101237.50;;;20.36;100.00
12468;BME280;57850;52.922;6.256;2023-07-13T05:25:51;101289.94;;;20.18;100.00
12468;BME280;57850;52.922;6.256;2023-07-13T05:28:18;101269.25;;;20.61;100.00
12468;BME280;57850;52.922;6.256;2023-07-13T05:30:45;101258.53;;;20.24;100.00
12468;BME280;57850;52.922;6.256;2023-07-13T05:33:12;101260.34;;;20.24;100.00
12468;BME280;57850;52.922;6.256;2023-07-13T05:35:39;101233.66;;;20.40;100.00
12468;BME280;57850;52.922;6.256;2023-07-13T05:38:07;101254.31;;;20.09;100.00
12468;BME280;57850;52.922;6.256;2023-07-13T05:40:33;101218.72;;;20.39;100.00
12468;BME280;57850;52.922;6.256;2023-07-13T05:43:00;101232.94;;;20.74;100.00
12468;BME280;57850;52.922;6.256;2023-07-13T05:45:27;101254.94;;;20.25;100.00
12468;BME280;57850;52.922;6.256;2023-07-13T05:47:54;101253.28;;;20.37;100.00
12468;BME280;57850;52.922;6.256;2023-07-13T05:50:20;101254.22;;;20.36;100.00
12468;BME280;57850;52.922;6.256;2023-07-13T05:52:47;101267.06;;;20.42;100.00
12468;BME280;57850;52.922;6.256;2023-07-13T05:55:15;101257.34;;;20.79;100.00
12468;BME280;57850;52.922;6.256;2023-07-13T05:57:42;101284.41;;;20.71;100.00
12468;BME280;57850;52.922;6.256;2023-07-13T06:00:10;101295.06;;;20.95;100.00
12468;BME280;57850;52.922;6.256;2023-07-13T06:02:37;101311.09;;;20.94;100.00
12468;BME280;57850;52.922;6.256;2023-07-13T06:05:04;101311.31;;;20.91;100.00
12468;BME280;57850;52.922;6.256;2023-07-13T06:07:31;101292.97;;;21.24;100.00
12468;BME280;57850;52.922;6.256;2023-07-13T06:09:58;101380.38;;;21.51;100.00
12468;BME280;57850;52.922;6.256;2023-07-13T06:12:27;101391.53;;;20.94;100.00
12468;BME280;57850;52.922;6.256;2023-07-13T06:14:53;101368.63;;;20.80;100.00
12468;BME280;57850;52.922;6.256;2023-07-13T06:17:20;101347.69;;;21.01;100.00
12468;BME280;57850;52.922;6.256;2023-07-13T06:19:47;101331.31;;;21.44;100.00
12468;BME280;57850;52.922;6.256;2023-07-13T06:22:13;101356.09;;;20.95;100.00
12468;BME280;57850;52.922;6.256;2023-07-13T06:24:40;101354.88;;;21.24;100.00
12468;BME280;57850;52.922;6.256;2023-07-13T06:27:07;101380.91;;;21.07;100.00
12468;BME280;57850;52.922;6.256;2023-07-13T06:29:35;101380.44;;;21.38;100.00
12468;BME280;57850;52.922;6.256;2023-07-13T06:32:02;101409.78;;;21.60;100.00
12468;BME280;57850;52.922;6.256;2023-07-13T06:34:29;101429.25;;;21.48;100.00
12468;BME280;57850;52.922;6.256;2023-07-13T06:36:56;101437.91;;;21.63;100.00
12468;BME280;57850;52.922;6.256;2023-07-13T06:39:22;101459.66;;;21.31;100.00
12468;BME280;57850;52.922;6.256;2023-07-13T06:41:49;101477.25;;;21.94;100.00
12468;BME280;57850;52.922;6.256;2023-07-13T06:44:16;101471.31;;;21.78;100.00
12468;BME280;57850;52.922;6.256;2023-07-13T06:46:44;101467.03;;;22.01;100.00
12468;BME280;57850;52.922;6.256;2023-07-13T06:49:11;101489.00;;;22.03;100.00
12468;BME280;57850;52.922;6.256;2023-07-13T06:51:38;101466.00;;;22.14;100.00
12468;BME280;57850;52.922;6.256;2023-07-13T06:54:04;101486.72;;;21.85;100.00
12468;BME280;57850;52.922;6.256;2023-07-13T06:56:31;101467.13;;;21.63;100.00
12468;BME280;57850;52.922;6.256;2023-07-13T06:58:58;101439.91;;;22.19;100.00
12468;BME280;57850;52.922;6.256;2023-07-13T07:01:25;101491.91;;;22.00;100.00
12468;BME280;57850;52.922;6.256;2023-07-13T07:03:53;101464.75;;;22.66;100.00
12468;BME280;57850;52.922;6.256;2023-07-13T07:06:22;101516.81;;;22.57;100.00
12468;BME280;57850;52.922;6.256;2023-07-13T07:08:49;101513.31;;;22.57;100.00
12468;BME280;57850;52.922;6.256;2023-07-13T07:11:18;101523.31;;;22.53;100.00
12468;BME280;57850;52.922;6.256;2023-07-13T07:13:45;101519.50;;;22.33;100.00
12468;BME280;57850;52.922;6.256;2023-07-13T07:16:12;101519.19;;;22.14;100.00
12468;BME280;57850;52.922;6.256;2023-07-13T07:18:38;101522.00;;;22.24;100.00
12468;BME280;57850;52.922;6.256;2023-07-13T07:21:06;101515.25;;;21.58;100.00
12468;BME280;57850;52.922;6.256;2023-07-13T07:23:33;101501.09;;;21.83;100.00
12468;BME280;57850;52.922;6.256;2023-07-13T07:26:00;101481.03;;;22.03;100.00
12468;BME280;57850;52.922;6.256;2023-07-13T07:28:27;101478.47;;;22.25;100.00
12468;BME280;57850;52.922;6.256;2023-07-13T07:30:55;101514.06;;;22.35;100.00
12468;BME280;57850;52.922;6.256;2023-07-13T07:33:22;101522.59;;;22.51;100.00
12468;BME280;57850;52.922;6.256;2023-07-13T07:35:49;101525.25;;;22.75;100.00
12468;BME280;57850;52.922;6.256;2023-07-13T07:38:18;101570.88;;;22.58;100.00
12468;BME280;57850;52.922;6.256;2023-07-13T07:40:45;101570.88;;;22.58;100.00
12468;BME280;57850;52.922;6.256;2023-07-13T07:43:12;101567.88;;;22.97;100.00
12468;BME280;57850;52.922;6.256;2023-07-13T07:45:40;101563.75;;;22.93;100.00
12468;BME280;57850;52.922;6.256;2023-07-13T07:48:07;101588.31;;;22.38;100.00
12468;BME280;57850;52.922;6.256;2023-07-13T07:50:35;101561.88;;;22.71;100.00
12468;BME280;57850;52.922;6.256;2023-07-13T07:53:03;101572.53;;;22.71;100.00
12468;BME280;57850;52.922;6.256;2023-07-13T07:55:34;101568.16;;;22.47;100.00
12468;BME280;57850;52.922;6.256;2023-07-13T07:58:01;101574.78;;;22.41;100.00
12468;BME280;57850;52.922;6.256;2023-07-13T08:00:29;101589.84;;;22.53;100.00
12468;BME280;57850;52.922;6.256;2023-07-13T08:02:57;101599.72;;;22.27;100.00
12468;BME280;57850;52.922;6.256;2023-07-13T08:05:24;101597.41;;;22.23;100.00
12468;BME280;57850;52.922;6.256;2023-07-13T08:07:51;101571.97;;;21.95;100.00
12468;BME280;57850;52.922;6.256;2023-07-13T08:10:18;101495.69;;;21.72;100.00
12468;BME280;57850;52.922;6.256;2023-07-13T08:12:46;101493.34;;;21.93;100.00
12468;BME280;57850;52.922;6.256;2023-07-13T08:15:14;101498.06;;;22.00;100.00
12468;BME280;57850;52.922;6.256;2023-07-13T08:17:42;101509.91;;;21.22;100.00
12468;BME280;57850;52.922;6.256;2023-07-13T08:20:09;101497.56;;;21.95;100.00
12468;BME280;57850;52.922;6.256;2023-07-13T08:22:36;101577.22;;;21.59;100.00
12468;BME280;57850;52.922;6.256;2023-07-13T08:25:03;101672.25;;;21.16;100.00
12468;BME280;57850;52.922;6.256;2023-07-13T08:27:30;101688.53;;;21.49;100.00
12468;BME280;57850;52.922;6.256;2023-07-13T08:29:59;101726.63;;;20.69;100.00
12468;BME280;57850;52.922;6.256;2023-07-13T08:32:26;101719.41;;;20.98;100.00
12468;BME280;57850;52.922;6.256;2023-07-13T08:34:52;101713.41;;;21.09;100.00
12468;BME280;57850;52.922;6.256;2023-07-13T08:37:19;101705.53;;;21.34;100.00
12468;BME280;57850;52.922;6.256;2023-07-13T08:39:46;101680.34;;;21.27;100.00
12468;BME280;57850;52.922;6.256;2023-07-13T08:42:18;101658.91;;;21.03;100.00
12468;BME280;57850;52.922;6.256;2023-07-13T08:44:56;101646.91;;;20.98;100.00
12468;BME280;57850;52.922;6.256;2023-07-13T08:47:26;101646.50;;;21.04;100.00
12468;BME280;57850;52.922;6.256;2023-07-13T08:49:54;101655.69;;;21.25;100.00
12468;BME280;57850;52.922;6.256;2023-07-13T08:52:30;101661.88;;;21.25;100.00
12468;BME280;57850;52.922;6.256;2023-07-13T08:55:04;101623.22;;;21.59;100.00
12468;BME280;57850;52.922;6.256;2023-07-13T08:57:34;101615.59;;;21.42;100.00
12468;BME280;57850;52.922;6.256;2023-07-13T09:00:01;101635.09;;;21.16;100.00
12468;BME280;57850;52.922;6.256;2023-07-13T09:02:41;101622.28;;;21.48;100.00
12468;BME280;57850;52.922;6.256;2023-07-13T09:05:13;101617.47;;;21.91;100.00
12468;BME280;57850;52.922;6.256;2023-07-13T09:08:01;101639.13;;;21.84;100.00
12468;BME280;57850;52.922;6.256;2023-07-13T09:10:37;101640.94;;;22.09;100.00
12468;BME280;57850;52.922;6.256;2023-07-13T09:13:22;101659.06;;;21.92;100.00
12468;BME280;57850;52.922;6.256;2023-07-13T09:15:51;101660.63;;;21.94;100.00
12468;BME280;57850;52.922;6.256;2023-07-13T09:18:25;101665.75;;;21.97;100.00
12468;BME280;57850;52.922;6.256;2023-07-13T09:20:55;101635.97;;;21.54;100.00
12468;BME280;57850;52.922;6.256;2023-07-13T09:23:27;101654.56;;;22.05;100.00
12468;BME280;57850;52.922;6.256;2023-07-13T09:26:06;101701.66;;;22.03;100.00
12468;BME280;57850;52.922;6.256;2023-07-13T09:28:41;101686.41;;;22.42;100.00
12468;BME280;57850;52.922;6.256;2023-07-13T09:31:11;101727.16;;;22.18;100.00
12468;BME280;57850;52.922;6.256;2023-07-13T09:33:41;101733.31;;;22.31;100.00
12468;BME280;57850;52.922;6.256;2023-07-13T09:36:18;101728.06;;;22.91;100.00
12468;BME280;57850;52.922;6.256;2023-07-13T09:38:45;101724.97;;;22.61;100.00
12468;BME280;57850;52.922;6.256;2023-07-13T09:41:21;101732.53;;;22.54;100.00
12468;BME280;57850;52.922;6.256;2023-07-13T09:44:17;101710.81;;;23.55;100.00
12468;BME280;57850;52.922;6.256;2023-07-13T09:46:47;101735.66;;;23.67;100.00
12468;BME280;57850;52.922;6.256;2023-07-13T09:49:15;101734.00;;;23.77;100.00
12468;BME280;57850;52.922;6.256;2023-07-13T09:51:42;101742.00;;;23.77;100.00
12468;BME280;57850;52.922;6.256;2023-07-13T09:54:18;101745.94;;;24.28;100.00
12468;BME280;57850;52.922;6.256;2023-07-13T09:56:45;101752.38;;;24.26;100.00
12468;BME280;57850;52.922;6.256;2023-07-13T09:59:19;101730.97;;;24.92;100.00
12468;BME280;57850;52.922;6.256;2023-07-13T10:01:46;101726.47;;;25.25;100.00
12468;BME280;57850;52.922;6.256;2023-07-13T10:04:18;101732.09;;;25.42;100.00
12468;BME280;57850;52.922;6.256;2023-07-13T10:06:46;101734.28;;;25.37;100.00
12468;BME280;57850;52.922;6.256;2023-07-13T10:09:15;101747.19;;;25.00;100.00
12468;BME280;57850;52.922;6.256;2023-07-13T10:11:42;101762.44;;;24.56;100.00
12468;BME280;57850;52.922;6.256;2023-07-13T10:14:12;101777.72;;;24.20;100.00
12468;BME280;57850;52.922;6.256;2023-07-13T10:16:41;101770.88;;;24.05;100.00
12468;BME280;57850;52.922;6.256;2023-07-13T10:19:13;101760.97;;;24.40;100.00
12468;BME280;57850;52.922;6.256;2023-07-13T10:21:50;101725.69;;;25.34;100.00
12468;BME280;57850;52.922;6.256;2023-07-13T10:24:21;101770.66;;;24.86;100.00
12468;BME280;57850;52.922;6.256;2023-07-13T10:26:53;101760.59;;;24.89;100.00
12468;BME280;57850;52.922;6.256;2023-07-13T10:29:22;101747.72;;;25.58;100.00
12468;BME280;57850;52.922;6.256;2023-07-13T10:31:50;101738.50;;;25.51;100.00
12468;BME280;57850;52.922;6.256;2023-07-13T10:34:17;101758.34;;;25.37;100.00
12468;BME280;57850;52.922;6.256;2023-07-13T10:36:47;101758.59;;;25.34;100.00
12468;BME280;57850;52.922;6.256;2023-07-13T10:39:17;101711.25;;;26.97;100.00
12468;BME280;57850;52.922;6.256;2023-07-13T10:41:47;101728.97;;;26.30;100.00
12468;BME280;57850;52.922;6.256;2023-07-13T10:44:19;101763.22;;;25.64;100.00
12468;BME280;57850;52.922;6.256;2023-07-13T10:46:57;101795.56;;;24.42;100.00
12468;BME280;57850;52.922;6.256;2023-07-13T10:49:26;101807.19;;;24.52;100.00
12468;BME280;57850;52.922;6.256;2023-07-13T10:51:56;101810.84;;;24.40;100.00
12468;BME280;57850;52.922;6.256;2023-07-13T10:54:27;101810.56;;;24.32;100.00
12468;BME280;57850;52.922;6.256;2023-07-13T10:57:16;101799.44;;;24.93;100.00
12468;BME280;57850;52.922;6.256;2023-07-13T10:59:46;101736.66;;;26.53;100.00
12468;BME280;57850;52.922;6.256;2023-07-13T11:02:26;101684.47;;;27.45;100.00
12468;BME280;57850;52.922;6.256;2023-07-13T11:04:55;101663.03;;;27.82;100.00
12468;BME280;57850;52.922;6.256;2023-07-13T11:07:25;101680.38;;;27.22;100.00
12468;BME280;57850;52.922;6.256;2023-07-13T11:09:54;101685.88;;;27.30;100.00
12468;BME280;57850;52.922;6.256;2023-07-13T11:12:52;101748.47;;;25.70;100.00
12468;BME280;57850;52.922;6.256;2023-07-13T11:15:32;101717.47;;;26.39;100.00
12468;BME280;57850;52.922;6.256;2023-07-13T11:18:03;101780.81;;;25.03;100.00
12468;BME280;57850;52.922;6.256;2023-07-13T11:20:36;101795.06;;;24.92;100.00
12468;BME280;57850;52.922;6.256;2023-07-13T11:23:18;101685.59;;;27.33;100.00
12468;BME280;57850;52.922;6.256;2023-07-13T11:25:45;101708.16;;;26.92;100.00
12468;BME280;57850;52.922;6.256;2023-07-13T11:28:22;101727.94;;;26.51;100.00
12468;BME280;57850;52.922;6.256;2023-07-13T11:34:02;101669.22;;;27.55;100.00
12468;BME280;57850;52.922;6.256;2023-07-13T11:36:32;101708.97;;;26.03;100.00
12468;BME280;57850;52.922;6.256;2023-07-13T11:39:12;101741.38;;;25.80;100.00
12468;BME280;57850;52.922;6.256;2023-07-13T11:41:45;101736.63;;;25.83;100.00
12468;BME280;57850;52.922;6.256;2023-07-13T11:44:14;101679.38;;;27.33;100.00
12468;BME280;57850;52.922;6.256;2023-07-13T11:46:46;101698.28;;;27.50;100.00
12468;BME280;57850;52.922;6.256;2023-07-13T11:49:16;101692.78;;;27.98;100.00
12468;BME280;57850;52.922;6.256;2023-07-13T11:51:44;101668.06;;;27.95;100.00
12468;BME280;57850;52.922;6.256;2023-07-13T11:54:23;101653.31;;;28.18;100.00
12468;BME280;57850;52.922;6.256;2023-07-13T11:56:52;101684.66;;;27.81;100.00
12468;BME280;57850;52.922;6.256;2023-07-13T11:59:19;101706.19;;;27.33;100.00
12468;BME280;57850;52.922;6.256;2023-07-13T12:01:50;101707.19;;;26.93;100.00
12468;BME280;57850;52.922;6.256;2023-07-13T12:04:22;101665.28;;;28.24;100.00
12468;BME280;57850;52.922;6.256;2023-07-13T12:06:54;101651.31;;;28.47;100.00
12468;BME280;57850;52.922;6.256;2023-07-13T12:09:26;101620.94;;;28.82;100.00
12468;BME280;57850;52.922;6.256;2023-07-13T12:11:53;101575.88;;;30.21;100.00
12468;BME280;57850;52.922;6.256;2023-07-13T12:14:20;101626.88;;;28.68;99.53
12468;BME280;57850;52.922;6.256;2023-07-13T12:16:50;101647.25;;;28.61;100.00
12468;BME280;57850;52.922;6.256;2023-07-13T12:19:18;101693.78;;;26.93;99.98
12468;BME280;57850;52.922;6.256;2023-07-13T12:21:46;101725.53;;;26.48;100.00
12468;BME280;57850;52.922;6.256;2023-07-13T12:24:17;101684.75;;;27.52;100.00
12468;BME280;57850;52.922;6.256;2023-07-13T12:26:53;101663.13;;;28.00;100.00
12468;BME280;57850;52.922;6.256;2023-07-13T12:29:20;101670.31;;;28.54;100.00
12468;BME280;57850;52.922;6.256;2023-07-13T12:31:48;101642.06;;;28.77;100.00
12468;BME280;57850;52.922;6.256;2023-07-13T12:34:19;101709.88;;;27.22;100.00
12468;BME280;57850;52.922;6.256;2023-07-13T12:36:48;101700.25;;;27.39;100.00
12468;BME280;57850;52.922;6.256;2023-07-13T12:39:18;101676.38;;;28.01;100.00
12468;BME280;57850;52.922;6.256;2023-07-13T12:41:46;101705.31;;;27.61;100.00
12468;BME280;57850;52.922;6.256;2023-07-13T12:44:17;101677.53;;;27.99;100.00
12468;BME280;57850;52.922;6.256;2023-07-13T12:46:54;101650.88;;;28.25;97.40
12468;BME280;57850;52.922;6.256;2023-07-13T12:49:26;101651.81;;;28.51;98.41
12468;BME280;57850;52.922;6.256;2023-07-13T12:51:58;101658.19;;;29.12;100.00